sensor_id;sensor_type;location;lat;lon;timestamp;P1;durP1;ratioP1;P2;durP2;ratioP2
679;SDS011;322;48.846;9.230;2023-08-06T00:00:29;9.77;;;8.77;;
679;SDS011;322;48.846;9.230;2023-08-06T00:02:57;21.87;;;12.40;;
679;SDS011;322;48.846;9.230;2023-08-06T00:05:28;55.10;;;15.47;;
679;SDS011;322;48.846;9.230;2023-08-06T00:07:56;13.47;;;12.17;;
679;SDS011;322;48.846;9.230;2023-08-06T00:10:24;13.73;;;10.40;;
679;SDS011;322;48.846;9.230;2023-08-06T00:12:52;26.77;;;12.40;;
679;SDS011;322;48.846;9.230;2023-08-06T00:15:20;125.23;;;23.20;;
679;SDS011;322;48.846;9.230;2023-08-06T00:17:49;10.43;;;9.07;;
679;SDS011;322;48.846;9.230;2023-08-06T00:20:17;11.70;;;9.50;;
679;SDS011;322;48.846;9.230;2023-08-06T00:22:46;13.33;;;9.00;;
679;SDS011;322;48.846;9.230;2023-08-06T00:25:14;9.30;;;8.50;;
679;SDS011;322;48.846;9.230;2023-08-06T00:27:43;11.77;;;8.23;;
679;SDS011;322;48.846;9.230;2023-08-06T00:30:11;12.00;;;9.60;;
679;SDS011;322;48.846;9.230;2023-08-06T00:32:39;9.10;;;8.30;;
679;SDS011;322;48.846;9.230;2023-08-06T00:35:07;10.57;;;7.97;;
679;SDS011;322;48.846;9.230;2023-08-06T00:37:35;8.93;;;8.13;;
679;SDS011;322;48.846;9.230;2023-08-06T00:40:05;9.23;;;8.40;;
679;SDS011;322;48.846;9.230;2023-08-06T00:42:34;43.37;;;13.30;;
679;SDS011;322;48.846;9.230;2023-08-06T00:45:02;327.13;;;45.50;;
679;SDS011;322;48.846;9.230;2023-08-06T00:47:31;12.40;;;11.00;;
679;SDS011;322;48.846;9.230;2023-08-06T00:49:59;11.80;;;10.63;;
679;SDS011;322;48.846;9.230;2023-08-06T00:52:27;10.87;;;9.77;;
679;SDS011;322;48.846;9.230;2023-08-06T00:54:55;11.47;;;10.43;;
679;SDS011;322;48.846;9.230;2023-08-06T00:57:25;13.33;;;11.00;;
679;SDS011;322;48.846;9.230;2023-08-06T00:59:53;12.30;;;11.20;;
679;SDS011;322;48.846;9.230;2023-08-06T01:02:22;11.73;;;10.60;;
679;SDS011;322;48.846;9.230;2023-08-06T01:04:50;471.87;;;64.93;;
679;SDS011;322;48.846;9.230;2023-08-06T01:07:21;116.73;;;22.87;;
679;SDS011;322;48.846;9.230;2023-08-06T01:09:57;14.37;;;12.97;;
679;SDS011;322;48.846;9.230;2023-08-06T01:12:45;382.77;;;48.47;;
679;SDS011;322;48.846;9.230;2023-08-06T01:15:19;18.73;;;14.97;;
679;SDS011;322;48.846;9.230;2023-08-06T01:17:49;27.80;;;17.70;;
679;SDS011;322;48.846;9.230;2023-08-06T01:20:18;22.07;;;18.70;;
679;SDS011;322;48.846;9.230;2023-08-06T01:22:47;20.57;;;18.37;;
679;SDS011;322;48.846;9.230;2023-08-06T01:25:15;25.70;;;20.87;;
679;SDS011;322;48.846;9.230;2023-08-06T01:27:47;134.10;;;30.73;;
679;SDS011;322;48.846;9.230;2023-08-06T01:30:17;208.53;;;40.87;;
679;SDS011;322;48.846;9.230;2023-08-06T01:32:49;21.90;;;17.30;;
679;SDS011;322;48.846;9.230;2023-08-06T01:35:21;24.10;;;16.97;;
679;SDS011;322;48.846;9.230;2023-08-06T01:37:51;23.20;;;18.10;;
679;SDS011;322;48.846;9.230;2023-08-06T01:40:19;22.27;;;17.90;;
679;SDS011;322;48.846;9.230;2023-08-06T01:42:47;36.20;;;19.07;;
679;SDS011;322;48.846;9.230;2023-08-06T01:45:15;20.10;;;17.80;;
679;SDS011;322;48.846;9.230;2023-08-06T01:47:43;15.93;;;14.27;;
679;SDS011;322;48.846;9.230;2023-08-06T01:50:11;16.53;;;14.70;;
679;SDS011;322;48.846;9.230;2023-08-06T01:52:39;20.33;;;15.20;;
679;SDS011;322;48.846;9.230;2023-08-06T01:55:09;17.37;;;15.40;;
679;SDS011;322;48.846;9.230;2023-08-06T01:57:37;16.57;;;14.83;;
679;SDS011;322;48.846;9.230;2023-08-06T02:00:05;17.30;;;14.47;;
679;SDS011;322;48.846;9.230;2023-08-06T02:02:34;16.87;;;14.23;;
679;SDS011;322;48.846;9.230;2023-08-06T02:05:03;18.00;;;14.43;;
679;SDS011;322;48.846;9.230;2023-08-06T02:07:31;38.23;;;17.60;;
679;SDS011;322;48.846;9.230;2023-08-06T02:09:59;17.53;;;15.20;;
679;SDS011;322;48.846;9.230;2023-08-06T02:12:28;16.60;;;14.67;;
679;SDS011;322;48.846;9.230;2023-08-06T02:14:56;16.53;;;14.47;;
679;SDS011;322;48.846;9.230;2023-08-06T02:17:24;12.53;;;11.07;;
679;SDS011;322;48.846;9.230;2023-08-06T02:19:52;12.23;;;10.90;;
679;SDS011;322;48.846;9.230;2023-08-06T02:22:20;10.93;;;9.90;;
679;SDS011;322;48.846;9.230;2023-08-06T02:24:49;10.10;;;9.20;;
679;SDS011;322;48.846;9.230;2023-08-06T02:27:17;11.20;;;9.63;;
679;SDS011;322;48.846;9.230;2023-08-06T02:29:46;10.87;;;9.77;;
679;SDS011;322;48.846;9.230;2023-08-06T02:32:14;9.13;;;8.23;;
679;SDS011;322;48.846;9.230;2023-08-06T02:34:42;9.87;;;8.77;;
679;SDS011;322;48.846;9.230;2023-08-06T02:37:11;10.87;;;7.60;;
679;SDS011;322;48.846;9.230;2023-08-06T02:39:39;8.00;;;7.30;;
679;SDS011;322;48.846;9.230;2023-08-06T02:42:07;10.13;;;7.17;;
679;SDS011;322;48.846;9.230;2023-08-06T02:44:35;11.20;;;7.40;;
679;SDS011;322;48.846;9.230;2023-08-06T02:47:05;7.10;;;6.40;;
679;SDS011;322;48.846;9.230;2023-08-06T02:49:33;7.17;;;6.40;;
679;SDS011;322;48.846;9.230;2023-08-06T02:52:01;8.30;;;7.47;;
679;SDS011;322;48.846;9.230;2023-08-06T02:54:29;7.70;;;7.00;;
679;SDS011;322;48.846;9.230;2023-08-06T02:56:57;8.10;;;6.87;;
679;SDS011;322;48.846;9.230;2023-08-06T02:59:25;6.37;;;5.77;;
679;SDS011;322;48.846;9.230;2023-08-06T03:01:53;6.60;;;6.10;;
679;SDS011;322;48.846;9.230;2023-08-06T03:04:23;69.30;;;14.83;;
679;SDS011;322;48.846;9.230;2023-08-06T03:06:51;7.27;;;6.57;;
679;SDS011;322;48.846;9.230;2023-08-06T03:09:19;8.40;;;7.60;;
679;SDS011;322;48.846;9.230;2023-08-06T03:11:47;7.97;;;7.20;;
679;SDS011;322;48.846;9.230;2023-08-06T03:14:16;7.67;;;6.90;;
679;SDS011;322;48.846;9.230;2023-08-06T03:16:43;15.53;;;8.13;;
679;SDS011;322;48.846;9.230;2023-08-06T03:19:11;6.63;;;6.03;;
679;SDS011;322;48.846;9.230;2023-08-06T03:21:41;16.30;;;7.60;;
679;SDS011;322;48.846;9.230;2023-08-06T03:24:09;6.10;;;5.53;;
679;SDS011;322;48.846;9.230;2023-08-06T03:26:37;8.77;;;6.47;;
679;SDS011;322;48.846;9.230;2023-08-06T03:29:05;7.30;;;6.30;;
679;SDS011;322;48.846;9.230;2023-08-06T03:31:33;6.60;;;5.93;;
679;SDS011;322;48.846;9.230;2023-08-06T03:34:01;6.70;;;5.63;;
679;SDS011;322;48.846;9.230;2023-08-06T03:36:29;6.67;;;5.50;;
679;SDS011;322;48.846;9.230;2023-08-06T03:38:58;6.40;;;4.83;;
679;SDS011;322;48.846;9.230;2023-08-06T03:41:26;4.73;;;4.33;;
679;SDS011;322;48.846;9.230;2023-08-06T03:43:54;4.80;;;4.40;;
679;SDS011;322;48.846;9.230;2023-08-06T03:46:22;7.20;;;4.60;;
679;SDS011;322;48.846;9.230;2023-08-06T03:48:52;5.33;;;4.83;;
679;SDS011;322;48.846;9.230;2023-08-06T03:51:20;6.50;;;4.73;;
679;SDS011;322;48.846;9.230;2023-08-06T03:53:48;5.57;;;3.93;;
679;SDS011;322;48.846;9.230;2023-08-06T03:56:17;5.23;;;4.80;;
679;SDS011;322;48.846;9.230;2023-08-06T03:58:45;5.40;;;4.90;;
679;SDS011;322;48.846;9.230;2023-08-06T04:01:13;5.10;;;4.60;;
679;SDS011;322;48.846;9.230;2023-08-06T04:03:42;5.00;;;4.60;;
679;SDS011;322;48.846;9.230;2023-08-06T04:06:10;9.50;;;5.70;;
679;SDS011;322;48.846;9.230;2023-08-06T04:08:38;17.00;;;7.33;;
679;SDS011;322;48.846;9.230;2023-08-06T04:11:06;6.23;;;5.63;;
679;SDS011;322;48.846;9.230;2023-08-06T04:13:36;6.30;;;5.70;;
679;SDS011;322;48.846;9.230;2023-08-06T04:16:04;25.03;;;8.37;;
679;SDS011;322;48.846;9.230;2023-08-06T04:18:32;5.67;;;5.27;;
679;SDS011;322;48.846;9.230;2023-08-06T04:21:01;6.00;;;5.20;;
679;SDS011;322;48.846;9.230;2023-08-06T04:23:29;6.03;;;5.40;;
679;SDS011;322;48.846;9.230;2023-08-06T04:25:58;43.17;;;10.43;;
679;SDS011;322;48.846;9.230;2023-08-06T04:28:26;7.27;;;6.57;;
679;SDS011;322;48.846;9.230;2023-08-06T04:30:55;8.60;;;7.00;;
679;SDS011;322;48.846;9.230;2023-08-06T04:33:23;9.73;;;6.03;;
679;SDS011;322;48.846;9.230;2023-08-06T04:35:53;6.37;;;5.40;;
679;SDS011;322;48.846;9.230;2023-08-06T04:38:23;6.10;;;5.30;;
679;SDS011;322;48.846;9.230;2023-08-06T04:40:52;6.70;;;5.30;;
679;SDS011;322;48.846;9.230;2023-08-06T04:43:20;7.83;;;5.37;;
679;SDS011;322;48.846;9.230;2023-08-06T04:45:48;13.73;;;5.30;;
679;SDS011;322;48.846;9.230;2023-08-06T04:48:18;5.23;;;3.50;;
679;SDS011;322;48.846;9.230;2023-08-06T04:50:46;6.83;;;4.90;;
679;SDS011;322;48.846;9.230;2023-08-06T04:53:18;18.83;;;6.23;;
679;SDS011;322;48.846;9.230;2023-08-06T04:55:46;11.13;;;6.17;;
679;SDS011;322;48.846;9.230;2023-08-06T04:58:14;6.60;;;5.17;;
679;SDS011;322;48.846;9.230;2023-08-06T05:00:44;3.93;;;3.63;;
679;SDS011;322;48.846;9.230;2023-08-06T05:03:12;5.77;;;3.63;;
679;SDS011;322;48.846;9.230;2023-08-06T05:05:41;5.17;;;4.07;;
679;SDS011;322;48.846;9.230;2023-08-06T05:08:13;4.27;;;3.40;;
679;SDS011;322;48.846;9.230;2023-08-06T05:10:43;5.30;;;3.90;;
679;SDS011;322;48.846;9.230;2023-08-06T05:13:11;4.13;;;3.37;;
679;SDS011;322;48.846;9.230;2023-08-06T05:15:40;5.20;;;3.53;;
679;SDS011;322;48.846;9.230;2023-08-06T05:18:09;5.17;;;4.40;;
679;SDS011;322;48.846;9.230;2023-08-06T05:20:38;5.93;;;4.50;;
679;SDS011;322;48.846;9.230;2023-08-06T05:23:08;5.33;;;4.53;;
679;SDS011;322;48.846;9.230;2023-08-06T05:25:36;6.70;;;4.67;;
679;SDS011;322;48.846;9.230;2023-08-06T05:28:04;7.27;;;4.87;;
679;SDS011;322;48.846;9.230;2023-08-06T05:30:32;5.60;;;4.30;;
679;SDS011;322;48.846;9.230;2023-08-06T05:33:03;2.90;;;2.70;;
679;SDS011;322;48.846;9.230;2023-08-06T05:35:31;4.67;;;4.00;;
679;SDS011;322;48.846;9.230;2023-08-06T05:37:59;3.70;;;2.83;;
679;SDS011;322;48.846;9.230;2023-08-06T05:40:28;4.10;;;3.03;;
679;SDS011;322;48.846;9.230;2023-08-06T05:42:56;3.30;;;3.00;;
679;SDS011;322;48.846;9.230;2023-08-06T05:45:24;3.23;;;2.93;;
679;SDS011;322;48.846;9.230;2023-08-06T05:47:52;4.17;;;2.53;;
679;SDS011;322;48.846;9.230;2023-08-06T05:50:24;3.63;;;2.20;;
679;SDS011;322;48.846;9.230;2023-08-06T05:52:52;7.40;;;3.27;;
679;SDS011;322;48.846;9.230;2023-08-06T05:55:20;5.00;;;2.27;;
679;SDS011;322;48.846;9.230;2023-08-06T05:57:49;3.17;;;2.60;;
679;SDS011;322;48.846;9.230;2023-08-06T06:00:18;2.50;;;2.10;;
679;SDS011;322;48.846;9.230;2023-08-06T06:02:47;4.90;;;2.07;;
679;SDS011;322;48.846;9.230;2023-08-06T06:05:16;2.30;;;2.10;;
679;SDS011;322;48.846;9.230;2023-08-06T06:07:44;2.53;;;1.90;;
679;SDS011;322;48.846;9.230;2023-08-06T06:10:12;3.33;;;2.00;;
679;SDS011;322;48.846;9.230;2023-08-06T06:12:40;2.00;;;1.80;;
679;SDS011;322;48.846;9.230;2023-08-06T06:15:10;3.03;;;1.77;;
679;SDS011;322;48.846;9.230;2023-08-06T06:17:38;2.90;;;1.80;;
679;SDS011;322;48.846;9.230;2023-08-06T06:20:07;2.90;;;1.60;;
679;SDS011;322;48.846;9.230;2023-08-06T06:22:35;2.50;;;2.10;;
679;SDS011;322;48.846;9.230;2023-08-06T06:25:04;2.33;;;1.60;;
679;SDS011;322;48.846;9.230;2023-08-06T06:27:33;2.27;;;1.40;;
679;SDS011;322;48.846;9.230;2023-08-06T06:30:01;1.60;;;1.40;;
679;SDS011;322;48.846;9.230;2023-08-06T06:32:31;3.50;;;1.00;;
679;SDS011;322;48.846;9.230;2023-08-06T06:35:00;2.77;;;1.03;;
679;SDS011;322;48.846;9.230;2023-08-06T06:37:28;1.73;;;1.10;;
679;SDS011;322;48.846;9.230;2023-08-06T06:39:56;1.30;;;0.70;;
679;SDS011;322;48.846;9.230;2023-08-06T06:42:24;1.40;;;1.00;;
679;SDS011;322;48.846;9.230;2023-08-06T06:44:52;1.07;;;0.97;;
679;SDS011;322;48.846;9.230;2023-08-06T06:47:20;3.63;;;1.07;;
679;SDS011;322;48.846;9.230;2023-08-06T06:49:50;1.30;;;1.00;;
679;SDS011;322;48.846;9.230;2023-08-06T06:52:18;1.10;;;0.80;;
679;SDS011;322;48.846;9.230;2023-08-06T06:54:46;1.20;;;1.00;;
679;SDS011;322;48.846;9.230;2023-08-06T06:57:14;2.10;;;1.03;;
679;SDS011;322;48.846;9.230;2023-08-06T06:59:42;3.57;;;0.83;;
679;SDS011;322;48.846;9.230;2023-08-06T07:02:10;0.70;;;0.70;;
679;SDS011;322;48.846;9.230;2023-08-06T07:04:38;2.77;;;1.10;;
679;SDS011;322;48.846;9.230;2023-08-06T07:07:07;1.67;;;0.70;;
679;SDS011;322;48.846;9.230;2023-08-06T07:09:36;1.87;;;0.80;;
679;SDS011;322;48.846;9.230;2023-08-06T07:12:04;2.53;;;0.67;;
679;SDS011;322;48.846;9.230;2023-08-06T07:14:33;2.03;;;0.50;;
679;SDS011;322;48.846;9.230;2023-08-06T07:17:01;1.17;;;0.60;;
679;SDS011;322;48.846;9.230;2023-08-06T07:19:29;1.43;;;0.70;;
679;SDS011;322;48.846;9.230;2023-08-06T07:21:57;1.40;;;0.70;;
679;SDS011;322;48.846;9.230;2023-08-06T07:24:26;1.13;;;0.70;;
679;SDS011;322;48.846;9.230;2023-08-06T07:26:54;1.13;;;0.70;;
679;SDS011;322;48.846;9.230;2023-08-06T07:29:22;0.90;;;0.50;;
679;SDS011;322;48.846;9.230;2023-08-06T07:31:51;0.90;;;0.50;;
679;SDS011;322;48.846;9.230;2023-08-06T07:34:19;1.93;;;0.60;;
679;SDS011;322;48.846;9.230;2023-08-06T07:36:47;1.57;;;0.47;;
679;SDS011;322;48.846;9.230;2023-08-06T07:39:15;1.00;;;0.70;;
679;SDS011;322;48.846;9.230;2023-08-06T07:41:45;1.93;;;0.60;;
679;SDS011;322;48.846;9.230;2023-08-06T07:44:13;2.17;;;0.67;;
679;SDS011;322;48.846;9.230;2023-08-06T07:46:41;1.53;;;0.60;;
679;SDS011;322;48.846;9.230;2023-08-06T07:49:09;0.60;;;0.60;;
679;SDS011;322;48.846;9.230;2023-08-06T07:51:38;2.53;;;1.90;;
679;SDS011;322;48.846;9.230;2023-08-06T07:54:06;1.13;;;0.50;;
679;SDS011;322;48.846;9.230;2023-08-06T07:56:34;2.77;;;0.70;;
679;SDS011;322;48.846;9.230;2023-08-06T07:59:04;2.20;;;0.77;;
679;SDS011;322;48.846;9.230;2023-08-06T08:01:32;1.00;;;0.70;;
679;SDS011;322;48.846;9.230;2023-08-06T08:04:00;1.43;;;0.60;;
679;SDS011;322;48.846;9.230;2023-08-06T08:06:28;0.70;;;0.47;;
679;SDS011;322;48.846;9.230;2023-08-06T08:08:56;1.50;;;0.60;;
679;SDS011;322;48.846;9.230;2023-08-06T08:11:25;1.00;;;0.40;;
679;SDS011;322;48.846;9.230;2023-08-06T08:13:53;1.13;;;0.47;;
679;SDS011;322;48.846;9.230;2023-08-06T08:16:23;3.27;;;0.70;;
679;SDS011;322;48.846;9.230;2023-08-06T08:18:51;2.20;;;0.40;;
679;SDS011;322;48.846;9.230;2023-08-06T08:21:19;0.70;;;0.40;;
679;SDS011;322;48.846;9.230;2023-08-06T08:23:47;1.17;;;0.30;;
679;SDS011;322;48.846;9.230;2023-08-06T08:26:15;0.83;;;0.40;;
679;SDS011;322;48.846;9.230;2023-08-06T08:28:43;0.70;;;0.30;;
679;SDS011;322;48.846;9.230;2023-08-06T08:31:11;1.53;;;0.30;;
679;SDS011;322;48.846;9.230;2023-08-06T08:33:41;0.90;;;0.37;;
679;SDS011;322;48.846;9.230;2023-08-06T08:36:09;0.73;;;0.30;;
679;SDS011;322;48.846;9.230;2023-08-06T08:38:37;1.10;;;0.30;;
679;SDS011;322;48.846;9.230;2023-08-06T08:41:05;0.97;;;0.40;;
679;SDS011;322;48.846;9.230;2023-08-06T08:43:33;1.43;;;0.43;;
679;SDS011;322;48.846;9.230;2023-08-06T08:46:02;0.50;;;0.30;;
679;SDS011;322;48.846;9.230;2023-08-06T08:48:33;1.73;;;0.23;;
679;SDS011;322;48.846;9.230;2023-08-06T08:51:03;0.80;;;0.30;;
679;SDS011;322;48.846;9.230;2023-08-06T08:53:33;0.50;;;0.40;;
679;SDS011;322;48.846;9.230;2023-08-06T08:56:05;0.50;;;0.30;;
679;SDS011;322;48.846;9.230;2023-08-06T08:58:33;1.03;;;0.20;;
679;SDS011;322;48.846;9.230;2023-08-06T09:01:01;0.80;;;0.20;;
679;SDS011;322;48.846;9.230;2023-08-06T09:03:30;1.43;;;0.20;;
679;SDS011;322;48.846;9.230;2023-08-06T09:06:00;0.50;;;0.20;;
679;SDS011;322;48.846;9.230;2023-08-06T09:08:36;0.40;;;0.20;;
679;SDS011;322;48.846;9.230;2023-08-06T09:11:06;0.80;;;0.30;;
679;SDS011;322;48.846;9.230;2023-08-06T09:13:37;0.57;;;0.30;;
679;SDS011;322;48.846;9.230;2023-08-06T09:16:05;0.50;;;0.20;;
679;SDS011;322;48.846;9.230;2023-08-06T09:18:33;0.73;;;0.30;;
679;SDS011;322;48.846;9.230;2023-08-06T09:21:03;0.40;;;0.20;;
679;SDS011;322;48.846;9.230;2023-08-06T09:23:31;0.40;;;0.20;;
679;SDS011;322;48.846;9.230;2023-08-06T09:25:59;0.50;;;0.20;;
679;SDS011;322;48.846;9.230;2023-08-06T09:28:36;0.97;;;0.27;;
679;SDS011;322;48.846;9.230;2023-08-06T09:31:06;0.70;;;0.20;;
679;SDS011;322;48.846;9.230;2023-08-06T09:33:34;0.40;;;0.20;;
679;SDS011;322;48.846;9.230;2023-08-06T09:36:08;0.40;;;0.20;;
679;SDS011;322;48.846;9.230;2023-08-06T09:38:37;1.33;;;0.20;;
679;SDS011;322;48.846;9.230;2023-08-06T09:41:07;0.63;;;0.20;;
679;SDS011;322;48.846;9.230;2023-08-06T09:43:41;0.57;;;0.30;;
679;SDS011;322;48.846;9.230;2023-08-06T09:46:12;0.50;;;0.37;;
679;SDS011;322;48.846;9.230;2023-08-06T09:48:44;0.50;;;0.20;;
679;SDS011;322;48.846;9.230;2023-08-06T09:51:14;0.50;;;0.30;;
679;SDS011;322;48.846;9.230;2023-08-06T09:53:43;1.10;;;0.20;;
679;SDS011;322;48.846;9.230;2023-08-06T09:56:13;0.40;;;0.20;;
679;SDS011;322;48.846;9.230;2023-08-06T09:58:42;0.50;;;0.30;;
679;SDS011;322;48.846;9.230;2023-08-06T10:01:14;0.50;;;0.30;;
679;SDS011;322;48.846;9.230;2023-08-06T10:03:43;1.63;;;0.30;;
679;SDS011;322;48.846;9.230;2023-08-06T10:06:12;0.50;;;0.23;;
679;SDS011;322;48.846;9.230;2023-08-06T10:08:41;1.57;;;0.30;;
679;SDS011;322;48.846;9.230;2023-08-06T10:11:11;0.50;;;0.30;;
679;SDS011;322;48.846;9.230;2023-08-06T10:13:40;0.50;;;0.30;;
679;SDS011;322;48.846;9.230;2023-08-06T10:16:08;0.50;;;0.30;;
679;SDS011;322;48.846;9.230;2023-08-06T10:18:37;0.60;;;0.30;;
679;SDS011;322;48.846;9.230;2023-08-06T10:21:07;0.50;;;0.20;;
679;SDS011;322;48.846;9.230;2023-08-06T10:23:37;1.70;;;0.37;;
679;SDS011;322;48.846;9.230;2023-08-06T10:26:08;0.67;;;0.30;;
679;SDS011;322;48.846;9.230;2023-08-06T10:28:36;0.60;;;0.40;;
679;SDS011;322;48.846;9.230;2023-08-06T10:31:05;0.60;;;0.30;;
679;SDS011;322;48.846;9.230;2023-08-06T10:33:40;0.60;;;0.30;;
679;SDS011;322;48.846;9.230;2023-08-06T10:36:09;0.90;;;0.40;;
679;SDS011;322;48.846;9.230;2023-08-06T10:38:46;0.60;;;0.30;;
679;SDS011;322;48.846;9.230;2023-08-06T10:41:15;0.50;;;0.20;;
679;SDS011;322;48.846;9.230;2023-08-06T10:43:46;0.40;;;0.20;;
679;SDS011;322;48.846;9.230;2023-08-06T10:46:26;0.50;;;0.20;;
679;SDS011;322;48.846;9.230;2023-08-06T10:48:55;0.70;;;0.20;;
679;SDS011;322;48.846;9.230;2023-08-06T10:51:23;0.50;;;0.20;;
679;SDS011;322;48.846;9.230;2023-08-06T10:53:53;0.40;;;0.30;;
679;SDS011;322;48.846;9.230;2023-08-06T10:56:22;0.40;;;0.20;;
679;SDS011;322;48.846;9.230;2023-08-06T10:58:53;1.63;;;0.20;;
679;SDS011;322;48.846;9.230;2023-08-06T11:01:23;0.77;;;0.50;;
679;SDS011;322;48.846;9.230;2023-08-06T11:03:51;0.60;;;0.30;;
679;SDS011;322;48.846;9.230;2023-08-06T11:06:20;0.50;;;0.50;;
679;SDS011;322;48.846;9.230;2023-08-06T11:08:49;0.63;;;0.40;;
679;SDS011;322;48.846;9.230;2023-08-06T11:11:21;0.50;;;0.30;;
679;SDS011;322;48.846;9.230;2023-08-06T11:13:50;1.80;;;0.40;;
679;SDS011;322;48.846;9.230;2023-08-06T11:16:20;1.70;;;0.97;;
679;SDS011;322;48.846;9.230;2023-08-06T11:18:51;1.07;;;0.60;;
679;SDS011;322;48.846;9.230;2023-08-06T11:21:21;0.93;;;0.70;;
679;SDS011;322;48.846;9.230;2023-08-06T11:23:50;0.70;;;0.60;;
679;SDS011;322;48.846;9.230;2023-08-06T11:26:20;0.80;;;0.50;;
679;SDS011;322;48.846;9.230;2023-08-06T11:28:49;0.70;;;0.60;;
679;SDS011;322;48.846;9.230;2023-08-06T11:31:21;0.83;;;0.70;;
679;SDS011;322;48.846;9.230;2023-08-06T11:33:50;0.70;;;0.60;;
679;SDS011;322;48.846;9.230;2023-08-06T11:36:28;2.00;;;0.90;;
679;SDS011;322;48.846;9.230;2023-08-06T11:38:57;1.13;;;0.70;;
679;SDS011;322;48.846;9.230;2023-08-06T11:41:27;1.57;;;0.67;;
679;SDS011;322;48.846;9.230;2023-08-06T11:43:55;1.00;;;0.83;;
679;SDS011;322;48.846;9.230;2023-08-06T11:46:23;1.00;;;0.80;;
679;SDS011;322;48.846;9.230;2023-08-06T11:48:52;1.30;;;1.13;;
679;SDS011;322;48.846;9.230;2023-08-06T11:51:22;2.40;;;0.93;;
679;SDS011;322;48.846;9.230;2023-08-06T11:53:53;1.50;;;1.23;;
679;SDS011;322;48.846;9.230;2023-08-06T11:56:22;1.90;;;1.10;;
679;SDS011;322;48.846;9.230;2023-08-06T11:58:53;3.20;;;1.30;;
679;SDS011;322;48.846;9.230;2023-08-06T12:01:22;3.10;;;1.40;;
679;SDS011;322;48.846;9.230;2023-08-06T12:03:51;3.10;;;1.40;;
679;SDS011;322;48.846;9.230;2023-08-06T12:06:19;3.93;;;1.70;;
679;SDS011;322;48.846;9.230;2023-08-06T12:08:47;2.37;;;1.50;;
679;SDS011;322;48.846;9.230;2023-08-06T12:11:17;3.03;;;1.67;;
679;SDS011;322;48.846;9.230;2023-08-06T12:13:45;1.83;;;1.20;;
679;SDS011;322;48.846;9.230;2023-08-06T12:16:14;2.40;;;1.53;;
679;SDS011;322;48.846;9.230;2023-08-06T12:18:44;3.00;;;1.77;;
679;SDS011;322;48.846;9.230;2023-08-06T12:21:12;3.20;;;1.67;;
679;SDS011;322;48.846;9.230;2023-08-06T12:23:40;2.80;;;1.90;;
679;SDS011;322;48.846;9.230;2023-08-06T12:26:08;3.33;;;2.67;;
679;SDS011;322;48.846;9.230;2023-08-06T12:28:36;1.53;;;1.27;;
679;SDS011;322;48.846;9.230;2023-08-06T12:31:04;1.93;;;1.60;;
679;SDS011;322;48.846;9.230;2023-08-06T12:33:34;4.10;;;2.77;;
679;SDS011;322;48.846;9.230;2023-08-06T12:36:02;3.40;;;1.97;;
679;SDS011;322;48.846;9.230;2023-08-06T12:38:30;2.20;;;2.00;;
679;SDS011;322;48.846;9.230;2023-08-06T12:41:00;4.93;;;2.27;;
679;SDS011;322;48.846;9.230;2023-08-06T12:43:28;2.10;;;1.90;;
679;SDS011;322;48.846;9.230;2023-08-06T12:45:56;2.23;;;1.37;;
679;SDS011;322;48.846;9.230;2023-08-06T12:48:24;2.70;;;1.70;;
679;SDS011;322;48.846;9.230;2023-08-06T12:50:53;2.30;;;1.70;;
679;SDS011;322;48.846;9.230;2023-08-06T12:53:21;4.40;;;1.80;;
679;SDS011;322;48.846;9.230;2023-08-06T12:55:50;4.10;;;2.07;;
679;SDS011;322;48.846;9.230;2023-08-06T12:58:18;3.50;;;1.70;;
679;SDS011;322;48.846;9.230;2023-08-06T13:00:46;1.47;;;1.17;;
679;SDS011;322;48.846;9.230;2023-08-06T13:03:14;1.40;;;1.23;;
679;SDS011;322;48.846;9.230;2023-08-06T13:05:42;2.23;;;1.17;;
679;SDS011;322;48.846;9.230;2023-08-06T13:08:12;3.27;;;1.57;;
679;SDS011;322;48.846;9.230;2023-08-06T13:10:40;2.23;;;1.30;;
679;SDS011;322;48.846;9.230;2023-08-06T13:13:08;1.70;;;1.30;;
679;SDS011;322;48.846;9.230;2023-08-06T13:15:37;1.47;;;0.97;;
679;SDS011;322;48.846;9.230;2023-08-06T13:18:05;2.50;;;1.00;;
679;SDS011;322;48.846;9.230;2023-08-06T13:20:33;1.10;;;0.93;;
679;SDS011;322;48.846;9.230;2023-08-06T13:23:01;2.10;;;1.20;;
679;SDS011;322;48.846;9.230;2023-08-06T13:25:31;1.13;;;0.90;;
679;SDS011;322;48.846;9.230;2023-08-06T13:28:03;2.30;;;1.00;;
679;SDS011;322;48.846;9.230;2023-08-06T13:30:31;1.47;;;0.73;;
679;SDS011;322;48.846;9.230;2023-08-06T13:33:00;0.90;;;0.83;;
679;SDS011;322;48.846;9.230;2023-08-06T13:35:31;1.90;;;0.87;;
679;SDS011;322;48.846;9.230;2023-08-06T13:37:59;2.20;;;0.90;;
679;SDS011;322;48.846;9.230;2023-08-06T13:40:32;2.03;;;1.17;;
679;SDS011;322;48.846;9.230;2023-08-06T13:43:00;1.00;;;0.73;;
679;SDS011;322;48.846;9.230;2023-08-06T13:45:28;1.17;;;0.70;;
679;SDS011;322;48.846;9.230;2023-08-06T13:47:57;1.60;;;0.87;;
679;SDS011;322;48.846;9.230;2023-08-06T13:50:25;0.70;;;0.50;;
679;SDS011;322;48.846;9.230;2023-08-06T13:52:54;1.33;;;0.50;;
679;SDS011;322;48.846;9.230;2023-08-06T13:55:22;1.70;;;0.60;;
679;SDS011;322;48.846;9.230;2023-08-06T13:57:52;1.17;;;0.60;;
679;SDS011;322;48.846;9.230;2023-08-06T14:00:20;1.57;;;0.87;;
679;SDS011;322;48.846;9.230;2023-08-06T14:02:48;1.20;;;1.00;;
679;SDS011;322;48.846;9.230;2023-08-06T14:05:16;0.60;;;0.50;;
679;SDS011;322;48.846;9.230;2023-08-06T14:07:44;1.27;;;0.77;;
679;SDS011;322;48.846;9.230;2023-08-06T14:10:12;1.73;;;0.60;;
679;SDS011;322;48.846;9.230;2023-08-06T14:12:40;1.27;;;0.57;;
679;SDS011;322;48.846;9.230;2023-08-06T14:15:14;0.83;;;0.40;;
679;SDS011;322;48.846;9.230;2023-08-06T14:17:42;1.53;;;0.40;;
679;SDS011;322;48.846;9.230;2023-08-06T14:20:10;0.60;;;0.40;;
679;SDS011;322;48.846;9.230;2023-08-06T14:22:39;4.43;;;1.33;;
679;SDS011;322;48.846;9.230;2023-08-06T14:25:07;0.80;;;0.80;;
679;SDS011;322;48.846;9.230;2023-08-06T14:27:35;1.07;;;0.70;;
679;SDS011;322;48.846;9.230;2023-08-06T14:30:05;0.70;;;0.60;;
679;SDS011;322;48.846;9.230;2023-08-06T14:32:35;1.87;;;1.20;;
679;SDS011;322;48.846;9.230;2023-08-06T14:35:03;1.43;;;0.77;;
679;SDS011;322;48.846;9.230;2023-08-06T14:37:32;1.40;;;0.77;;
679;SDS011;322;48.846;9.230;2023-08-06T14:40:00;2.90;;;0.87;;
679;SDS011;322;48.846;9.230;2023-08-06T14:42:28;2.07;;;0.97;;
679;SDS011;322;48.846;9.230;2023-08-06T14:44:56;1.57;;;0.87;;
679;SDS011;322;48.846;9.230;2023-08-06T14:47:24;1.20;;;0.93;;
679;SDS011;322;48.846;9.230;2023-08-06T14:49:54;1.93;;;1.20;;
679;SDS011;322;48.846;9.230;2023-08-06T14:52:22;0.80;;;0.67;;
679;SDS011;322;48.846;9.230;2023-08-06T14:54:50;1.50;;;1.13;;
679;SDS011;322;48.846;9.230;2023-08-06T14:57:18;1.17;;;0.80;;
679;SDS011;322;48.846;9.230;2023-08-06T14:59:47;0.73;;;0.60;;
679;SDS011;322;48.846;9.230;2023-08-06T15:02:15;1.23;;;0.87;;
679;SDS011;322;48.846;9.230;2023-08-06T15:04:44;1.23;;;0.80;;
679;SDS011;322;48.846;9.230;2023-08-06T15:07:13;0.90;;;0.70;;
679;SDS011;322;48.846;9.230;2023-08-06T15:09:41;0.70;;;0.57;;
679;SDS011;322;48.846;9.230;2023-08-06T15:12:29;1.00;;;0.80;;
679;SDS011;322;48.846;9.230;2023-08-06T15:14:57;1.50;;;0.73;;
679;SDS011;322;48.846;9.230;2023-08-06T15:17:27;1.10;;;0.93;;
679;SDS011;322;48.846;9.230;2023-08-06T15:19:56;1.20;;;0.90;;
679;SDS011;322;48.846;9.230;2023-08-06T15:22:26;1.50;;;0.73;;
679;SDS011;322;48.846;9.230;2023-08-06T15:24:55;1.30;;;1.00;;
679;SDS011;322;48.846;9.230;2023-08-06T15:27:24;2.00;;;0.80;;
679;SDS011;322;48.846;9.230;2023-08-06T15:29:52;1.37;;;0.90;;
679;SDS011;322;48.846;9.230;2023-08-06T15:32:20;1.07;;;0.97;;
679;SDS011;322;48.846;9.230;2023-08-06T15:34:49;3.60;;;0.90;;
679;SDS011;322;48.846;9.230;2023-08-06T15:37:17;3.90;;;0.97;;
679;SDS011;322;48.846;9.230;2023-08-06T15:39:47;1.23;;;0.80;;
679;SDS011;322;48.846;9.230;2023-08-06T15:42:15;1.20;;;0.60;;
679;SDS011;322;48.846;9.230;2023-08-06T15:44:43;1.00;;;0.80;;
679;SDS011;322;48.846;9.230;2023-08-06T15:47:11;2.00;;;0.70;;
679;SDS011;322;48.846;9.230;2023-08-06T15:49:40;1.30;;;0.80;;